Onde está Camping Camarinhais en Portugal?

Camping Camarinhais está situado na região Santarem em Portugal!

Buscar o nome de uma cidade:

Campello, Camping Papartis, Camp Four, Camping Alvdalen, Camping Lokken Familie

Aqui você vai encontrar a localização de Camping Camarinhais em um mapa.
Para ver como ele atualmente parece, abaixo estão algumas fotos da região, com webcams online.
Você também pode encontrar a distância para as principais cidades da região e de cidades do resto do Portugal.

Todos os lugares do mundo chamado .

new

Onde está Camping Camarinhais no mapa?


Webcams perto Camping Camarinhais

Benavente > North-East: AIrport, METAR: BENAV 180005Z 36004KT 17/14 Q1015.


Benavente > North-East: AIrport, METAR: BENAV 180005Z 36004KT 17/14 Q1015 - Dia
Actual
Benavente > North-East: AIrport, METAR: BENAV 180005Z 36004KT 17/14 Q1015 - Actual

Lisbon > South: Rua Vasco da Gama.


Lisbon > South: Rua Vasco da Gama - Dia
Actual
Lisbon > South: Rua Vasco da Gama - Actual

Lisbon > North: Ponte Vasco da Gama.


Lisbon > North: Ponte Vasco da Gama - Dia
Actual
Lisbon > North: Ponte Vasco da Gama - Actual

Webcams provided by webcams.travel

Distâncias

Onde está Camping Camarinhais em relação a outros lugares?

Top 10 cidades em Santarem e distância de Camping Camarinhais.

Cidade#Populaçãokmmilhas
Santarém1293853119
Entroncamento2198876339
Tomar3191687949
Torres Novas4145266138
Samora Correia51415464
Abrantes6136467748
Ourém7127297748
Rio Maior8120644025
Fátima9117987245
Almeirim10115563220

Top 10 cidades em Portugal e distância de Camping Camarinhais.

Cidade # Populaçãokmmilhas
Lisbon15177983924
Porto2249630241150
Amadora31788564327
Braga4121393288179
Setúbal51171095031
Coimbra610658014288
Queluz71033984327
Funchal8980411012629
Vila Nova de Gaia970810240149
Loures10662303421